sensor_id;sensor_type;location;lat;lon;timestamp;pressure;altitude;pressure_sealevel;temperature;humidity
50696;BME280;36665;51.786;21.594;2023-04-07T00:07:22;93563.36;;;3.70;70.84
50696;BME280;36665;51.786;21.594;2023-04-07T00:15:45;93611.42;;;3.81;70.75
50696;BME280;36665;51.786;21.594;2023-04-07T00:24:08;93637.45;;;3.89;70.77
50696;BME280;36665;51.786;21.594;2023-04-07T00:32:32;93639.80;;;3.88;70.75
50696;BME280;36665;51.786;21.594;2023-04-07T00:40:58;93642.08;;;3.89;70.82
50696;BME280;36665;51.786;21.594;2023-04-07T00:49:21;93654.54;;;3.93;70.86
50696;BME280;36665;51.786;21.594;2023-04-07T00:57:44;93660.34;;;3.93;70.89
50696;BME280;36665;51.786;21.594;2023-04-07T01:06:09;93668.52;;;3.95;70.96
50696;BME280;36665;51.786;21.594;2023-04-07T01:14:41;93690.80;;;4.01;71.03
50696;BME280;36665;51.786;21.594;2023-04-07T01:24:00;93699.75;;;4.03;71.18
50696;BME280;36665;51.786;21.594;2023-04-07T01:32:26;93731.23;;;4.11;71.24
50696;BME280;36665;51.786;21.594;2023-04-07T01:40:51;93786.25;;;4.25;71.35
50696;BME280;36665;51.786;21.594;2023-04-07T01:49:15;93821.27;;;4.35;71.34
50696;BME280;36665;51.786;21.594;2023-04-07T01:57:38;93857.89;;;4.43;71.63
50696;BME280;36665;51.786;21.594;2023-04-07T02:06:11;93887.74;;;4.52;71.41
50696;BME280;36665;51.786;21.594;2023-04-07T02:14:38;93915.82;;;4.59;71.51
50696;BME280;36665;51.786;21.594;2023-04-07T02:23:06;93955.52;;;4.69;71.50
50696;BME280;36665;51.786;21.594;2023-04-07T02:31:32;93982.23;;;4.75;71.72
50696;BME280;36665;51.786;21.594;2023-04-07T02:39:55;94000.84;;;4.80;71.72
50696;BME280;36665;51.786;21.594;2023-04-07T02:48:18;94014.56;;;4.84;71.68
50696;BME280;36665;51.786;21.594;2023-04-07T02:56:42;94034.90;;;4.87;71.96
50696;BME280;36665;51.786;21.594;2023-04-07T03:05:05;94063.40;;;4.95;71.71
50696;BME280;36665;51.786;21.594;2023-04-07T03:13:28;94091.17;;;5.03;72.04
50696;BME280;36665;51.786;21.594;2023-04-07T03:21:52;94091.86;;;5.03;72.06
50696;BME280;36665;51.786;21.594;2023-04-07T03:30:16;94106.77;;;5.06;71.77
50696;BME280;36665;51.786;21.594;2023-04-07T03:38:40;94149.85;;;5.16;71.98
50696;BME280;36665;51.786;21.594;2023-04-07T03:47:03;94160.14;;;5.18;72.00
50696;BME280;36665;51.786;21.594;2023-04-07T03:55:28;94173.52;;;5.23;72.01
50696;BME280;36665;51.786;21.594;2023-04-07T04:03:55;94212.14;;;5.31;72.14
50696;BME280;36665;51.786;21.594;2023-04-07T04:12:24;94247.75;;;5.42;72.44
50696;BME280;36665;51.786;21.594;2023-04-07T04:20:58;94261.42;;;5.45;72.44
50696;BME280;36665;51.786;21.594;2023-04-07T04:29:22;94269.06;;;5.46;72.47
50696;BME280;36665;51.786;21.594;2023-04-07T04:37:45;94284.80;;;5.51;72.62
50696;BME280;36665;51.786;21.594;2023-04-07T04:46:08;94312.40;;;5.58;72.84
50696;BME280;36665;51.786;21.594;2023-04-07T04:54:35;94337.95;;;5.63;72.60
50696;BME280;36665;51.786;21.594;2023-04-07T05:02:58;94364.45;;;5.69;72.86
50696;BME280;36665;51.786;21.594;2023-04-07T05:11:22;94400.59;;;5.79;72.73
50696;BME280;36665;51.786;21.594;2023-04-07T05:19:47;94431.43;;;5.87;72.71
50696;BME280;36665;51.786;21.594;2023-04-07T05:28:18;94450.29;;;5.92;72.86
50696;BME280;36665;51.786;21.594;2023-04-07T05:36:41;94463.85;;;5.95;72.94
50696;BME280;36665;51.786;21.594;2023-04-07T05:45:06;94511.80;;;6.08;73.13
50696;BME280;36665;51.786;21.594;2023-04-07T05:53:32;94572.73;;;6.23;73.14
50696;BME280;36665;51.786;21.594;2023-04-07T06:01:57;94605.66;;;6.31;73.41
50696;BME280;36665;51.786;21.594;2023-04-07T06:10:20;94604.77;;;6.31;73.29
50696;BME280;36665;51.786;21.594;2023-04-07T06:18:43;94635.79;;;6.39;73.15
50696;BME280;36665;51.786;21.594;2023-04-07T06:27:07;94690.99;;;6.52;73.55
50696;BME280;36665;51.786;21.594;2023-04-07T06:35:30;94756.96;;;6.69;73.62
50696;BME280;36665;51.786;21.594;2023-04-07T06:43:53;94781.25;;;6.75;73.76
50696;BME280;36665;51.786;21.594;2023-04-07T06:52:17;94775.85;;;6.73;73.72
50696;BME280;36665;51.786;21.594;2023-04-07T07:00:40;94799.73;;;6.79;73.59
50696;BME280;36665;51.786;21.594;2023-04-07T07:09:03;94853.77;;;6.92;73.81
50696;BME280;36665;51.786;21.594;2023-04-07T07:17:26;94948.64;;;7.16;74.14
50696;BME280;36665;51.786;21.594;2023-04-07T07:25:49;95040.16;;;7.39;74.21
50696;BME280;36665;51.786;21.594;2023-04-07T07:34:12;95110.47;;;7.58;74.28
50696;BME280;36665;51.786;21.594;2023-04-07T07:42:35;95162.21;;;7.71;74.14
50696;BME280;36665;51.786;21.594;2023-04-07T07:50:58;95233.58;;;7.87;74.36
50696;BME280;36665;51.786;21.594;2023-04-07T07:59:21;95325.21;;;8.11;74.34
50696;BME280;36665;51.786;21.594;2023-04-07T08:07:44;95411.36;;;8.33;74.42
50696;BME280;36665;51.786;21.594;2023-04-07T08:16:08;95472.89;;;8.48;74.75
50696;BME280;36665;51.786;21.594;2023-04-07T08:24:31;95523.92;;;8.60;74.93
50696;BME280;36665;51.786;21.594;2023-04-07T08:32:54;95595.31;;;8.78;74.84
50696;BME280;36665;51.786;21.594;2023-04-07T08:41:39;95688.70;;;9.02;75.08
50696;BME280;36665;51.786;21.594;2023-04-07T08:50:05;95742.73;;;9.15;75.02
50696;BME280;36665;51.786;21.594;2023-04-07T08:58:29;95770.87;;;9.23;75.14
50696;BME280;36665;51.786;21.594;2023-04-07T09:06:52;95779.09;;;9.23;75.33
50696;BME280;36665;51.786;21.594;2023-04-07T09:15:15;95771.13;;;9.21;75.07
50696;BME280;36665;51.786;21.594;2023-04-07T09:23:40;95778.15;;;9.22;75.08
50696;BME280;36665;51.786;21.594;2023-04-07T09:32:04;95802.25;;;9.28;75.33
50696;BME280;36665;51.786;21.594;2023-04-07T09:40:27;95859.02;;;9.41;75.50
50696;BME280;36665;51.786;21.594;2023-04-07T09:49:03;95903.31;;;9.53;75.48
50696;BME280;36665;51.786;21.594;2023-04-07T09:57:29;95949.05;;;9.63;75.46
50696;BME280;36665;51.786;21.594;2023-04-07T10:05:52;95951.91;;;9.63;75.58
50696;BME280;36665;51.786;21.594;2023-04-07T10:14:18;95954.34;;;9.63;75.63
50696;BME280;36665;51.786;21.594;2023-04-07T10:22:41;95946.52;;;9.61;75.51
50696;BME280;36665;51.786;21.594;2023-04-07T10:31:06;95969.92;;;9.66;75.62
50696;BME280;36665;51.786;21.594;2023-04-07T10:39:29;95965.38;;;9.64;75.62
50696;BME280;36665;51.786;21.594;2023-04-07T10:56:25;95887.44;;;9.45;75.65
50696;BME280;36665;51.786;21.594;2023-04-07T11:04:49;95843.89;;;9.33;75.85
50696;BME280;36665;51.786;21.594;2023-04-07T11:13:12;95717.54;;;9.01;75.56
50696;BME280;36665;51.786;21.594;2023-04-07T11:21:36;95605.90;;;8.73;75.59
50696;BME280;36665;51.786;21.594;2023-04-07T11:29:59;95541.08;;;8.56;75.51
50696;BME280;36665;51.786;21.594;2023-04-07T11:38:24;95505.06;;;8.46;75.56
50696;BME280;36665;51.786;21.594;2023-04-07T11:46:55;95530.05;;;8.53;75.52
50696;BME280;36665;51.786;21.594;2023-04-07T11:55:19;95645.86;;;8.83;75.50
50696;BME280;36665;51.786;21.594;2023-04-07T12:12:26;95830.13;;;9.29;75.68
50696;BME280;36665;51.786;21.594;2023-04-07T12:20:50;95766.08;;;9.12;75.79
50696;BME280;36665;51.786;21.594;2023-04-07T12:29:13;95682.85;;;8.91;75.63
50696;BME280;36665;51.786;21.594;2023-04-07T12:37:36;95575.34;;;8.62;75.61
50696;BME280;36665;51.786;21.594;2023-04-07T12:45:59;95441.01;;;8.28;75.60
50696;BME280;36665;51.786;21.594;2023-04-07T12:54:22;95336.96;;;8.02;75.53
50696;BME280;36665;51.786;21.594;2023-04-07T13:02:45;95210.42;;;7.69;75.35
50696;BME280;36665;51.786;21.594;2023-04-07T13:11:09;95121.55;;;7.46;75.30
50696;BME280;36665;51.786;21.594;2023-04-07T13:19:32;95094.96;;;7.40;75.44
50696;BME280;36665;51.786;21.594;2023-04-07T13:27:58;95113.84;;;7.43;75.38
50696;BME280;36665;51.786;21.594;2023-04-07T13:36:21;95148.21;;;7.53;75.52
50696;BME280;36665;51.786;21.594;2023-04-07T13:44:45;95190.38;;;7.64;75.58
50696;BME280;36665;51.786;21.594;2023-04-07T13:53:09;95237.73;;;7.76;75.53
50696;BME280;36665;51.786;21.594;2023-04-07T14:01:33;95277.52;;;7.86;75.67
50696;BME280;36665;51.786;21.594;2023-04-07T14:09:57;95270.27;;;7.84;75.51
50696;BME280;36665;51.786;21.594;2023-04-07T14:18:20;95275.14;;;7.85;75.38
50696;BME280;36665;51.786;21.594;2023-04-07T14:26:45;95312.48;;;7.95;75.63
50696;BME280;36665;51.786;21.594;2023-04-07T14:35:09;95369.79;;;8.09;75.68
50696;BME280;36665;51.786;21.594;2023-04-07T14:43:32;95405.69;;;8.19;75.40
50696;BME280;36665;51.786;21.594;2023-04-07T14:51:55;95380.84;;;8.12;75.65
50696;BME280;36665;51.786;21.594;2023-04-07T15:00:19;95337.65;;;8.02;75.31
50696;BME280;36665;51.786;21.594;2023-04-07T15:08:42;95318.48;;;7.96;75.39
50696;BME280;36665;51.786;21.594;2023-04-07T15:17:05;95298.23;;;7.90;75.53
50696;BME280;36665;51.786;21.594;2023-04-07T15:25:28;95337.60;;;8.01;75.40
50696;BME280;36665;51.786;21.594;2023-04-07T15:33:51;95413.60;;;8.20;75.37
50696;BME280;36665;51.786;21.594;2023-04-07T15:42:15;95424.29;;;8.23;75.40
50696;BME280;36665;51.786;21.594;2023-04-07T15:50:38;95244.88;;;7.77;75.34
50696;BME280;36665;51.786;21.594;2023-04-07T15:59:01;95045.55;;;7.25;75.08
50696;BME280;36665;51.786;21.594;2023-04-07T16:07:24;94939.18;;;6.98;75.12
50696;BME280;36665;51.786;21.594;2023-04-07T16:15:47;94879.08;;;6.83;74.98
50696;BME280;36665;51.786;21.594;2023-04-07T16:24:10;94835.40;;;6.72;74.99
50696;BME280;36665;51.786;21.594;2023-04-07T16:32:34;94812.13;;;6.66;74.95
50696;BME280;36665;51.786;21.594;2023-04-07T16:40:57;94781.23;;;6.57;75.00
50696;BME280;36665;51.786;21.594;2023-04-07T16:49:26;94732.14;;;6.45;74.99
50696;BME280;36665;51.786;21.594;2023-04-07T16:57:50;94693.12;;;6.34;75.03
50696;BME280;36665;51.786;21.594;2023-04-07T17:06:13;94657.37;;;6.25;74.96
50696;BME280;36665;51.786;21.594;2023-04-07T17:14:38;94621.63;;;6.16;74.95
50696;BME280;36665;51.786;21.594;2023-04-07T17:23:02;94605.73;;;6.13;74.91
50696;BME280;36665;51.786;21.594;2023-04-07T17:31:25;94591.63;;;6.09;74.82
50696;BME280;36665;51.786;21.594;2023-04-07T17:39:49;94580.39;;;6.05;75.07
50696;BME280;36665;51.786;21.594;2023-04-07T17:48:12;94576.13;;;6.03;74.74
50696;BME280;36665;51.786;21.594;2023-04-07T17:56:35;94559.62;;;5.99;74.93
50696;BME280;36665;51.786;21.594;2023-04-07T18:05:00;94534.91;;;5.92;75.06
50696;BME280;36665;51.786;21.594;2023-04-07T18:13:23;94504.60;;;5.85;74.88
50696;BME280;36665;51.786;21.594;2023-04-07T18:21:48;94457.02;;;5.72;75.06
50696;BME280;36665;51.786;21.594;2023-04-07T18:30:14;94402.34;;;5.58;75.04
50696;BME280;36665;51.786;21.594;2023-04-07T18:38:38;94341.23;;;5.41;74.67
50696;BME280;36665;51.786;21.594;2023-04-07T18:47:02;94291.52;;;5.28;74.74
50696;BME280;36665;51.786;21.594;2023-04-07T18:55:26;94250.73;;;5.17;74.83
50696;BME280;36665;51.786;21.594;2023-04-07T19:03:49;94213.75;;;5.08;74.70
50696;BME280;36665;51.786;21.594;2023-04-07T19:12:12;94173.49;;;4.97;74.60
50696;BME280;36665;51.786;21.594;2023-04-07T19:20:35;94119.64;;;4.84;74.55
50696;BME280;36665;51.786;21.594;2023-04-07T19:28:59;94056.29;;;4.67;74.40
50696;BME280;36665;51.786;21.594;2023-04-07T19:37:25;93982.86;;;4.48;74.62
50696;BME280;36665;51.786;21.594;2023-04-07T19:45:48;93941.09;;;4.37;74.55
50696;BME280;36665;51.786;21.594;2023-04-07T19:54:11;93943.65;;;4.37;74.32
50696;BME280;36665;51.786;21.594;2023-04-07T20:02:35;93961.69;;;4.42;74.55
50696;BME280;36665;51.786;21.594;2023-04-07T20:10:59;93970.61;;;4.44;74.65
50696;BME280;36665;51.786;21.594;2023-04-07T20:19:22;93962.61;;;4.43;74.47
50696;BME280;36665;51.786;21.594;2023-04-07T20:27:45;93962.73;;;4.42;74.53
50696;BME280;36665;51.786;21.594;2023-04-07T20:36:11;93955.89;;;4.42;74.31
50696;BME280;36665;51.786;21.594;2023-04-07T20:44:34;93949.92;;;4.39;74.35
50696;BME280;36665;51.786;21.594;2023-04-07T20:52:57;93934.58;;;4.36;74.48
50696;BME280;36665;51.786;21.594;2023-04-07T21:01:20;93922.96;;;4.32;74.38
50696;BME280;36665;51.786;21.594;2023-04-07T21:09:44;93917.09;;;4.31;74.24
50696;BME280;36665;51.786;21.594;2023-04-07T21:18:07;93916.45;;;4.30;74.44
50696;BME280;36665;51.786;21.594;2023-04-07T21:26:30;93921.81;;;4.32;74.20
50696;BME280;36665;51.786;21.594;2023-04-07T21:34:53;93906.70;;;4.28;74.11
50696;BME280;36665;51.786;21.594;2023-04-07T21:43:16;93900.14;;;4.28;74.43
50696;BME280;36665;51.786;21.594;2023-04-07T21:51:39;93885.94;;;4.24;74.26
50696;BME280;36665;51.786;21.594;2023-04-07T22:00:03;93882.98;;;4.22;74.37
50696;BME280;36665;51.786;21.594;2023-04-07T22:08:36;93875.02;;;4.21;74.28
50696;BME280;36665;51.786;21.594;2023-04-07T22:16:59;93882.64;;;4.22;74.19
50696;BME280;36665;51.786;21.594;2023-04-07T22:25:23;93886.19;;;4.23;74.34
50696;BME280;36665;51.786;21.594;2023-04-07T22:33:46;93889.74;;;4.24;74.39
50696;BME280;36665;51.786;21.594;2023-04-07T22:42:09;93891.86;;;4.25;74.36
50696;BME280;36665;51.786;21.594;2023-04-07T22:50:32;93875.43;;;4.21;74.13
50696;BME280;36665;51.786;21.594;2023-04-07T22:58:55;93875.34;;;4.21;74.35
50696;BME280;36665;51.786;21.594;2023-04-07T23:07:27;93883.30;;;4.23;74.19
50696;BME280;36665;51.786;21.594;2023-04-07T23:15:50;93853.77;;;4.15;74.13
50696;BME280;36665;51.786;21.594;2023-04-07T23:24:13;93822.91;;;4.07;74.12
50696;BME280;36665;51.786;21.594;2023-04-07T23:32:36;93790.38;;;3.99;74.23
50696;BME280;36665;51.786;21.594;2023-04-07T23:41:00;93739.16;;;3.85;74.26
50696;BME280;36665;51.786;21.594;2023-04-07T23:49:22;93679.61;;;3.69;73.86
50696;BME280;36665;51.786;21.594;2023-04-07T23:57:46;93613.39;;;3.52;73.88
